sensor_id;sensor_type;location;lat;lon;timestamp;pressure;altitude;pressure_sealevel;temperature;humidity
21838;BME280;11081;45.946;6.140;2022-08-21T00:01:03;95307.06;;;20.05;76.78
21838;BME280;11081;45.946;6.140;2022-08-21T00:03:33;95306.56;;;19.98;77.06
21838;BME280;11081;45.946;6.140;2022-08-21T00:06:01;95305.00;;;19.92;77.16
21838;BME280;11081;45.946;6.140;2022-08-21T00:08:29;95303.47;;;19.86;77.49
21838;BME280;11081;45.946;6.140;2022-08-21T00:10:58;95297.94;;;19.83;77.47
21838;BME280;11081;45.946;6.140;2022-08-21T00:13:27;95300.84;;;19.81;77.72
21838;BME280;11081;45.946;6.140;2022-08-21T00:15:55;95302.44;;;19.82;77.81
21838;BME280;11081;45.946;6.140;2022-08-21T00:18:23;95304.56;;;19.80;78.23
21838;BME280;11081;45.946;6.140;2022-08-21T00:20:51;95304.56;;;19.80;78.56
21838;BME280;11081;45.946;6.140;2022-08-21T00:23:19;95304.03;;;19.83;78.72
21838;BME280;11081;45.946;6.140;2022-08-21T00:25:47;95307.75;;;19.82;79.02
21838;BME280;11081;45.946;6.140;2022-08-21T00:28:17;95305.88;;;19.77;79.36
21838;BME280;11081;45.946;6.140;2022-08-21T00:30:45;95303.50;;;19.76;79.60
21838;BME280;11081;45.946;6.140;2022-08-21T00:33:13;95306.16;;;19.76;80.10
21838;BME280;11081;45.946;6.140;2022-08-21T00:35:42;95298.22;;;19.76;79.92
21838;BME280;11081;45.946;6.140;2022-08-21T00:38:11;95297.19;;;19.72;80.23
21838;BME280;11081;45.946;6.140;2022-08-21T00:40:42;95304.63;;;19.70;80.30
21838;BME280;11081;45.946;6.140;2022-08-21T00:43:13;95295.91;;;19.64;79.93
21838;BME280;11081;45.946;6.140;2022-08-21T00:45:44;95301.53;;;19.58;80.06
21838;BME280;11081;45.946;6.140;2022-08-21T00:48:12;95299.91;;;19.57;80.40
21838;BME280;11081;45.946;6.140;2022-08-21T00:50:43;95307.84;;;19.62;80.30
21838;BME280;11081;45.946;6.140;2022-08-21T00:53:14;95297.25;;;19.62;80.28
21838;BME280;11081;45.946;6.140;2022-08-21T00:55:43;95296.22;;;19.58;80.70
21838;BME280;11081;45.946;6.140;2022-08-21T00:58:13;95296.75;;;19.55;80.71
21838;BME280;11081;45.946;6.140;2022-08-21T01:00:47;95296.75;;;19.49;81.01
21838;BME280;11081;45.946;6.140;2022-08-21T01:03:18;95293.63;;;19.42;80.90
21838;BME280;11081;45.946;6.140;2022-08-21T01:05:50;95289.34;;;19.46;80.73
21838;BME280;11081;45.946;6.140;2022-08-21T01:08:19;95297.28;;;19.52;80.57
21838;BME280;11081;45.946;6.140;2022-08-21T01:10:49;95295.69;;;19.50;80.35
21838;BME280;11081;45.946;6.140;2022-08-21T01:13:25;95296.25;;;19.47;80.18
21838;BME280;11081;45.946;6.140;2022-08-21T01:15:57;95289.34;;;19.46;80.01
21838;BME280;11081;45.946;6.140;2022-08-21T01:18:27;95291.72;;;19.48;80.11
21838;BME280;11081;45.946;6.140;2022-08-21T01:21:01;95287.00;;;19.45;80.25
21838;BME280;11081;45.946;6.140;2022-08-21T01:23:29;95284.59;;;19.48;80.21
21838;BME280;11081;45.946;6.140;2022-08-21T01:25:57;95283.50;;;19.49;80.55
21838;BME280;11081;45.946;6.140;2022-08-21T01:28:26;95282.72;;;19.49;80.18
21838;BME280;11081;45.946;6.140;2022-08-21T01:30:57;95283.50;;;19.49;80.37
21838;BME280;11081;45.946;6.140;2022-08-21T01:33:26;95293.06;;;19.45;80.15
21838;BME280;11081;45.946;6.140;2022-08-21T01:35:54;95298.38;;;19.45;80.83
21838;BME280;11081;45.946;6.140;2022-08-21T01:38:24;95293.63;;;19.42;80.74
21838;BME280;11081;45.946;6.140;2022-08-21T01:40:54;95287.81;;;19.35;81.64
21838;BME280;11081;45.946;6.140;2022-08-21T01:43:23;95276.69;;;19.38;81.51
21838;BME280;11081;45.946;6.140;2022-08-21T01:46:05;95278.28;;;19.39;81.48
21838;BME280;11081;45.946;6.140;2022-08-21T01:48:33;95283.06;;;19.32;81.80
21838;BME280;11081;45.946;6.140;2022-08-21T01:51:01;95287.31;;;19.28;82.42
21838;BME280;11081;45.946;6.140;2022-08-21T01:53:30;95276.19;;;19.31;82.43
21838;BME280;11081;45.946;6.140;2022-08-21T01:56:00;95274.59;;;19.30;82.32
21838;BME280;11081;45.946;6.140;2022-08-21T01:58:28;95272.47;;;19.32;82.16
21838;BME280;11081;45.946;6.140;2022-08-21T02:00:57;95269.84;;;19.32;82.37
21838;BME280;11081;45.946;6.140;2022-08-21T02:03:25;95261.34;;;19.35;82.74
21838;BME280;11081;45.946;6.140;2022-08-21T02:06:02;95266.38;;;19.37;82.39
21838;BME280;11081;45.946;6.140;2022-08-21T02:08:31;95260.28;;;19.41;82.46
21838;BME280;11081;45.946;6.140;2022-08-21T02:11:00;95261.31;;;19.45;82.06
21838;BME280;11081;45.946;6.140;2022-08-21T02:13:28;95269.75;;;19.47;82.01
21838;BME280;11081;45.946;6.140;2022-08-21T02:15:56;95268.19;;;19.46;82.04
21838;BME280;11081;45.946;6.140;2022-08-21T02:18:24;95263.97;;;19.40;82.51
21838;BME280;11081;45.946;6.140;2022-08-21T02:20:52;95266.63;;;19.35;82.81
21838;BME280;11081;45.946;6.140;2022-08-21T02:23:23;95261.34;;;19.35;82.84
21838;BME280;11081;45.946;6.140;2022-08-21T02:25:54;95268.22;;;19.36;82.36
21838;BME280;11081;45.946;6.140;2022-08-21T02:28:23;95264.53;;;19.37;82.65
21838;BME280;11081;45.946;6.140;2022-08-21T02:30:53;95250.75;;;19.35;82.99
21838;BME280;11081;45.946;6.140;2022-08-21T02:33:22;95253.94;;;19.37;82.38
21838;BME280;11081;45.946;6.140;2022-08-21T02:35:51;95253.94;;;19.37;81.77
21838;BME280;11081;45.946;6.140;2022-08-21T02:38:22;95247.03;;;19.36;81.92
21838;BME280;11081;45.946;6.140;2022-08-21T02:40:52;95253.44;;;19.30;82.35
21838;BME280;11081;45.946;6.140;2022-08-21T02:43:23;95245.00;;;19.23;82.13
21838;BME280;11081;45.946;6.140;2022-08-21T02:45:53;95244.50;;;19.21;82.41
21838;BME280;11081;45.946;6.140;2022-08-21T02:48:24;95250.34;;;19.18;82.31
21838;BME280;11081;45.946;6.140;2022-08-21T02:50:54;95257.72;;;19.21;82.17
21838;BME280;11081;45.946;6.140;2022-08-21T02:53:22;95254.00;;;19.22;82.08
21838;BME280;11081;45.946;6.140;2022-08-21T02:55:52;95251.91;;;19.19;81.90
21838;BME280;11081;45.946;6.140;2022-08-21T02:58:24;95250.84;;;19.20;82.08
21838;BME280;11081;45.946;6.140;2022-08-21T03:00:53;95245.56;;;19.15;82.63
21838;BME280;11081;45.946;6.140;2022-08-21T03:03:21;95253.25;;;19.16;82.48
21838;BME280;11081;45.946;6.140;2022-08-21T03:05:49;95241.06;;;19.15;82.25
21838;BME280;11081;45.946;6.140;2022-08-21T03:08:18;95239.75;;;19.13;82.05
21838;BME280;11081;45.946;6.140;2022-08-21T03:10:51;95249.56;;;19.07;82.44
21838;BME280;11081;45.946;6.140;2022-08-21T03:13:19;95250.91;;;19.05;82.68
21838;BME280;11081;45.946;6.140;2022-08-21T03:15:49;95246.66;;;19.09;82.87
21838;BME280;11081;45.946;6.140;2022-08-21T03:18:18;95250.13;;;19.04;82.38
21838;BME280;11081;45.946;6.140;2022-08-21T03:20:47;95247.25;;;18.96;83.46
21838;BME280;11081;45.946;6.140;2022-08-21T03:23:16;95241.97;;;18.91;83.72
21838;BME280;11081;45.946;6.140;2022-08-21T03:25:46;95243.03;;;18.89;83.89
21838;BME280;11081;45.946;6.140;2022-08-21T03:28:17;95244.63;;;18.85;84.25
21838;BME280;11081;45.946;6.140;2022-08-21T03:30:47;95241.44;;;18.88;84.30
21838;BME280;11081;45.946;6.140;2022-08-21T03:33:17;95247.28;;;18.85;84.75
21838;BME280;11081;45.946;6.140;2022-08-21T03:35:55;95239.38;;;18.80;84.84
21838;BME280;11081;45.946;6.140;2022-08-21T03:38:24;95239.91;;;18.77;85.00
21838;BME280;11081;45.946;6.140;2022-08-21T03:40:52;95238.31;;;18.81;85.19
21838;BME280;11081;45.946;6.140;2022-08-21T03:43:20;95240.69;;;18.78;85.13
21838;BME280;11081;45.946;6.140;2022-08-21T03:45:48;95237.78;;;18.79;85.31
21838;BME280;11081;45.946;6.140;2022-08-21T03:48:19;95233.03;;;18.76;85.34
21838;BME280;11081;45.946;6.140;2022-08-21T03:50:47;95237.81;;;18.69;85.84
21838;BME280;11081;45.946;6.140;2022-08-21T03:53:16;95231.47;;;18.65;85.98
21838;BME280;11081;45.946;6.140;2022-08-21T03:55:45;95233.59;;;18.63;86.52
21838;BME280;11081;45.946;6.140;2022-08-21T03:58:14;95236.22;;;18.68;86.17
21838;BME280;11081;45.946;6.140;2022-08-21T04:00:44;95243.09;;;18.69;86.26
21838;BME280;11081;45.946;6.140;2022-08-21T04:03:14;95243.63;;;18.66;86.44
21838;BME280;11081;45.946;6.140;2022-08-21T04:05:44;95248.38;;;18.69;85.98
21838;BME280;11081;45.946;6.140;2022-08-21T04:08:13;95244.16;;;18.63;86.61
21838;BME280;11081;45.946;6.140;2022-08-21T04:10:46;95238.88;;;18.58;86.89
21838;BME280;11081;45.946;6.140;2022-08-21T04:13:15;95244.16;;;18.58;86.79
21838;BME280;11081;45.946;6.140;2022-08-21T04:15:43;95245.22;;;18.57;87.08
21838;BME280;11081;45.946;6.140;2022-08-21T04:18:11;95235.19;;;18.54;86.99
21838;BME280;11081;45.946;6.140;2022-08-21T04:20:40;95242.06;;;18.55;86.81
21838;BME280;11081;45.946;6.140;2022-08-21T04:23:17;95235.97;;;18.54;86.71
21838;BME280;11081;45.946;6.140;2022-08-21T04:25:50;95242.56;;;18.52;87.00
21838;BME280;11081;45.946;6.140;2022-08-21T04:28:19;95240.47;;;18.54;86.71
21838;BME280;11081;45.946;6.140;2022-08-21T04:30:49;95235.19;;;18.54;86.68
21838;BME280;11081;45.946;6.140;2022-08-21T04:33:19;95224.59;;;18.54;86.26
21838;BME280;11081;45.946;6.140;2022-08-21T04:35:47;95228.81;;;18.60;85.84
21838;BME280;11081;45.946;6.140;2022-08-21T04:38:17;95228.81;;;18.60;85.63
21838;BME280;11081;45.946;6.140;2022-08-21T04:40:45;95235.69;;;18.61;85.25
21838;BME280;11081;45.946;6.140;2022-08-21T04:43:14;95230.41;;;18.61;84.87
21838;BME280;11081;45.946;6.140;2022-08-21T04:45:45;95235.19;;;18.54;84.36
21838;BME280;11081;45.946;6.140;2022-08-21T04:48:16;95237.28;;;18.52;84.18
21838;BME280;11081;45.946;6.140;2022-08-21T04:50:49;95235.72;;;18.46;84.67
21838;BME280;11081;45.946;6.140;2022-08-21T04:53:23;95238.91;;;18.27;85.73
21838;BME280;11081;45.946;6.140;2022-08-21T04:55:53;95252.13;;;18.07;87.43
21838;BME280;11081;45.946;6.140;2022-08-21T04:58:22;95250.28;;;18.08;87.60
21838;BME280;11081;45.946;6.140;2022-08-21T05:00:54;95250.56;;;18.16;87.22
21838;BME280;11081;45.946;6.140;2022-08-21T05:03:23;95253.19;;;18.26;86.86
21838;BME280;11081;45.946;6.140;2022-08-21T05:05:51;95256.88;;;18.31;86.57
21838;BME280;11081;45.946;6.140;2022-08-21T05:08:23;95248.44;;;18.34;86.15
21838;BME280;11081;45.946;6.140;2022-08-21T05:10:52;95247.09;;;18.31;86.38
21838;BME280;11081;45.946;6.140;2022-08-21T05:13:26;95248.69;;;18.32;86.57
21838;BME280;11081;45.946;6.140;2022-08-21T05:15:54;95254.22;;;18.31;86.40
21838;BME280;11081;45.946;6.140;2022-08-21T05:18:22;95249.47;;;18.27;86.51
21838;BME280;11081;45.946;6.140;2022-08-21T05:20:50;95262.16;;;18.31;86.27
21838;BME280;11081;45.946;6.140;2022-08-21T05:23:18;95252.66;;;18.24;86.28
21838;BME280;11081;45.946;6.140;2022-08-21T05:25:48;95258.22;;;18.18;86.69
21838;BME280;11081;45.946;6.140;2022-08-21T05:28:16;95262.72;;;18.17;86.63
21838;BME280;11081;45.946;6.140;2022-08-21T05:30:45;95253.72;;;18.18;86.76
21838;BME280;11081;45.946;6.140;2022-08-21T05:33:13;95258.72;;;18.25;86.44
21838;BME280;11081;45.946;6.140;2022-08-21T05:35:41;95262.94;;;18.31;86.24
21838;BME280;11081;45.946;6.140;2022-08-21T05:38:09;95245.78;;;18.34;86.12
21838;BME280;11081;45.946;6.140;2022-08-21T05:40:44;95260.06;;;18.33;85.39
21838;BME280;11081;45.946;6.140;2022-08-21T05:43:14;95249.50;;;18.33;84.31
21838;BME280;11081;45.946;6.140;2022-08-21T05:45:42;95241.56;;;18.27;83.92
21838;BME280;11081;45.946;6.140;2022-08-21T05:48:12;95250.00;;;18.29;84.16
21838;BME280;11081;45.946;6.140;2022-08-21T05:50:42;95247.38;;;18.35;84.33
21838;BME280;11081;45.946;6.140;2022-08-21T05:53:10;95248.41;;;18.39;84.45
21838;BME280;11081;45.946;6.140;2022-08-21T05:55:40;95253.16;;;18.42;84.58
21838;BME280;11081;45.946;6.140;2022-08-21T05:58:15;95249.75;;;18.36;84.92
21838;BME280;11081;45.946;6.140;2022-08-21T06:00:45;95248.41;;;18.39;84.29
21838;BME280;11081;45.946;6.140;2022-08-21T06:03:16;95242.06;;;18.45;84.08
21838;BME280;11081;45.946;6.140;2022-08-21T06:05:44;95239.94;;;18.47;83.79
21838;BME280;11081;45.946;6.140;2022-08-21T06:08:13;95242.56;;;18.52;83.18
21838;BME280;11081;45.946;6.140;2022-08-21T06:10:41;95241.25;;;18.54;83.45
21838;BME280;11081;45.946;6.140;2022-08-21T06:13:10;95232.53;;;18.54;83.65
21838;BME280;11081;45.946;6.140;2022-08-21T06:15:40;95244.44;;;18.56;83.57
21838;BME280;11081;45.946;6.140;2022-08-21T06:18:09;95240.47;;;18.64;83.14
21838;BME280;11081;45.946;6.140;2022-08-21T06:20:37;95239.38;;;18.70;83.02
21838;BME280;11081;45.946;6.140;2022-08-21T06:23:05;95248.91;;;18.71;82.87
21838;BME280;11081;45.946;6.140;2022-08-21T06:25:34;95238.31;;;18.76;83.30
21838;BME280;11081;45.946;6.140;2022-08-21T06:28:04;95238.81;;;18.83;83.17
21838;BME280;11081;45.946;6.140;2022-08-21T06:30:33;95238.28;;;18.86;83.22
21838;BME280;11081;45.946;6.140;2022-08-21T06:33:04;95249.34;;;18.94;83.05
21838;BME280;11081;45.946;6.140;2022-08-21T06:35:33;95238.78;;;18.99;83.11
21838;BME280;11081;45.946;6.140;2022-08-21T06:38:03;95243.00;;;19.00;83.12
21838;BME280;11081;45.946;6.140;2022-08-21T06:40:31;95236.63;;;19.06;82.63
21838;BME280;11081;45.946;6.140;2022-08-21T06:43:05;95234.72;;;19.11;82.54
21838;BME280;11081;45.946;6.140;2022-08-21T06:45:34;95234.19;;;19.14;82.34
21838;BME280;11081;45.946;6.140;2022-08-21T06:48:04;95233.91;;;19.21;81.95
21838;BME280;11081;45.946;6.140;2022-08-21T06:50:33;95237.50;;;19.40;81.24
21838;BME280;11081;45.946;6.140;2022-08-21T06:53:04;95238.50;;;19.49;80.77
21838;BME280;11081;45.946;6.140;2022-08-21T06:55:33;95234.78;;;19.56;81.10
21838;BME280;11081;45.946;6.140;2022-08-21T06:58:02;95245.03;;;19.67;80.94
21838;BME280;11081;45.946;6.140;2022-08-21T07:00:31;95246.31;;;19.75;80.68
21838;BME280;11081;45.946;6.140;2022-08-21T07:02:59;95245.75;;;19.83;80.24
21838;BME280;11081;45.946;6.140;2022-08-21T07:05:29;95249.09;;;19.94;80.48
21838;BME280;11081;45.946;6.140;2022-08-21T07:07:58;95249.38;;;19.92;80.41
21838;BME280;11081;45.946;6.140;2022-08-21T07:10:26;95247.56;;;19.88;80.67
21838;BME280;11081;45.946;6.140;2022-08-21T07:12:55;95246.28;;;19.80;80.94
21838;BME280;11081;45.946;6.140;2022-08-21T07:15:28;95248.91;;;19.85;80.94
21838;BME280;11081;45.946;6.140;2022-08-21T07:17:56;95246.16;;;20.00;80.80
21838;BME280;11081;45.946;6.140;2022-08-21T07:20:25;95253.88;;;20.26;79.13
21838;BME280;11081;45.946;6.140;2022-08-21T07:22:55;95250.06;;;20.42;78.02
21838;BME280;11081;45.946;6.140;2022-08-21T07:25:24;95257.34;;;20.55;77.84
21838;BME280;11081;45.946;6.140;2022-08-21T07:27:52;95248.22;;;20.66;77.75
21838;BME280;11081;45.946;6.140;2022-08-21T07:30:20;95253.97;;;20.74;77.48
21838;BME280;11081;45.946;6.140;2022-08-21T07:32:48;95256.13;;;20.72;77.42
21838;BME280;11081;45.946;6.140;2022-08-21T07:35:17;95262.22;;;20.72;76.94
21838;BME280;11081;45.946;6.140;2022-08-21T07:37:45;95257.13;;;20.76;76.86
21838;BME280;11081;45.946;6.140;2022-08-21T07:40:15;95258.63;;;20.87;76.49
21838;BME280;11081;45.946;6.140;2022-08-21T07:42:45;95260.06;;;20.98;76.51
21838;BME280;11081;45.946;6.140;2022-08-21T07:45:14;95252.53;;;20.86;76.09
21838;BME280;11081;45.946;6.140;2022-08-21T07:47:42;95245.84;;;20.89;75.80
21838;BME280;11081;45.946;6.140;2022-08-21T07:50:11;95247.28;;;21.00;76.13
21838;BME280;11081;45.946;6.140;2022-08-21T07:52:40;95250.13;;;21.09;75.45
21838;BME280;11081;45.946;6.140;2022-08-21T07:55:10;95252.38;;;20.96;76.37
21838;BME280;11081;45.946;6.140;2022-08-21T07:57:40;95252.59;;;21.00;75.68
21838;BME280;11081;45.946;6.140;2022-08-21T08:00:11;95248.56;;;20.84;76.62
21838;BME280;11081;45.946;6.140;2022-08-21T08:02:40;95247.97;;;21.11;76.40
21838;BME280;11081;45.946;6.140;2022-08-21T08:05:10;95245.38;;;21.29;75.47
21838;BME280;11081;45.946;6.140;2022-08-21T08:07:39;95243.09;;;21.42;74.61
21838;BME280;11081;45.946;6.140;2022-08-21T08:10:09;95233.03;;;21.39;74.62
21838;BME280;11081;45.946;6.140;2022-08-21T08:12:40;95239.59;;;21.46;74.45
21838;BME280;11081;45.946;6.140;2022-08-21T08:15:10;95232.47;;;21.42;74.65
21838;BME280;11081;45.946;6.140;2022-08-21T08:17:39;95237.22;;;21.45;74.49
21838;BME280;11081;45.946;6.140;2022-08-21T08:20:08;95230.47;;;21.34;75.17
21838;BME280;11081;45.946;6.140;2022-08-21T08:22:38;95226.59;;;21.45;75.07
21838;BME280;11081;45.946;6.140;2022-08-21T08:25:09;95233.34;;;21.56;74.88
21838;BME280;11081;45.946;6.140;2022-08-21T08:27:38;95224.69;;;21.64;73.92
21838;BME280;11081;45.946;6.140;2022-08-21T08:30:10;95221.41;;;21.72;73.78
21838;BME280;11081;45.946;6.140;2022-08-21T08:32:39;95215.94;;;21.82;73.36
21838;BME280;11081;45.946;6.140;2022-08-21T08:35:08;95221.69;;;21.89;73.26
21838;BME280;11081;45.946;6.140;2022-08-21T08:37:38;95214.53;;;21.71;74.18
21838;BME280;11081;45.946;6.140;2022-08-21T08:40:11;95216.41;;;21.52;74.82
21838;BME280;11081;45.946;6.140;2022-08-21T08:42:40;95204.69;;;21.53;74.94
21838;BME280;11081;45.946;6.140;2022-08-21T08:45:13;95210.66;;;21.45;74.94
21838;BME280;11081;45.946;6.140;2022-08-21T08:47:45;95206.28;;;21.35;75.62
21838;BME280;11081;45.946;6.140;2022-08-21T08:50:17;95198.66;;;21.47;74.99
21838;BME280;11081;45.946;6.140;2022-08-21T08:52:49;95198.44;;;21.44;76.07
21838;BME280;11081;45.946;6.140;2022-08-21T08:55:21;95190.13;;;21.32;76.06
21838;BME280;11081;45.946;6.140;2022-08-21T08:57:54;95183.53;;;21.48;75.85
21838;BME280;11081;45.946;6.140;2022-08-21T09:00:24;95183.84;;;21.60;75.39
21838;BME280;11081;45.946;6.140;2022-08-21T09:02:55;95177.97;;;21.63;74.46
21838;BME280;11081;45.946;6.140;2022-08-21T09:05:25;95178.91;;;21.72;74.32
21838;BME280;11081;45.946;6.140;2022-08-21T09:08:11;95171.50;;;22.02;73.75
21838;BME280;11081;45.946;6.140;2022-08-21T09:10:51;95177.69;;;22.30;72.31
21838;BME280;11081;45.946;6.140;2022-08-21T09:13:29;95170.81;;;22.42;71.95
21838;BME280;11081;45.946;6.140;2022-08-21T09:16:13;95169.22;;;22.41;71.66
21838;BME280;11081;45.946;6.140;2022-08-21T09:18:55;95171.00;;;22.32;71.48
21838;BME280;11081;45.946;6.140;2022-08-21T09:21:32;95166.28;;;22.57;70.90
21838;BME280;11081;45.946;6.140;2022-08-21T09:24:21;95166.28;;;22.84;70.43
21838;BME280;11081;45.946;6.140;2022-08-21T09:26:57;95168.28;;;22.92;70.22
21838;BME280;11081;45.946;6.140;2022-08-21T09:29:30;95161.88;;;22.93;69.96
21838;BME280;11081;45.946;6.140;2022-08-21T09:32:11;95167.06;;;22.98;69.30
21838;BME280;11081;45.946;6.140;2022-08-21T09:34:56;95161.66;;;22.76;69.41
21838;BME280;11081;45.946;6.140;2022-08-21T09:37:26;95151.31;;;22.61;70.93
21838;BME280;11081;45.946;6.140;2022-08-21T09:39:56;95146.56;;;22.58;70.95
21838;BME280;11081;45.946;6.140;2022-08-21T09:42:26;95149.63;;;22.37;71.19
21838;BME280;11081;45.946;6.140;2022-08-21T09:45:10;95153.47;;;22.31;71.12
21838;BME280;11081;45.946;6.140;2022-08-21T09:47:40;95159.56;;;22.32;71.59
21838;BME280;11081;45.946;6.140;2022-08-21T09:50:14;95148.75;;;22.28;71.71
21838;BME280;11081;45.946;6.140;2022-08-21T09:52:45;95148.75;;;22.28;71.59
21838;BME280;11081;45.946;6.140;2022-08-21T09:55:20;95145.97;;;22.33;72.19
21838;BME280;11081;45.946;6.140;2022-08-21T09:58:07;95143.13;;;22.43;71.52
21838;BME280;11081;45.946;6.140;2022-08-21T10:00:36;95140.47;;;22.43;69.86
21838;BME280;11081;45.946;6.140;2022-08-21T10:03:14;95130.00;;;22.47;69.59
21838;BME280;11081;45.946;6.140;2022-08-21T10:05:55;95130.00;;;22.47;71.26
21838;BME280;11081;45.946;6.140;2022-08-21T10:08:26;95129.63;;;22.54;71.01
21838;BME280;11081;45.946;6.140;2022-08-21T10:11:07;95128.81;;;22.67;70.59
21838;BME280;11081;45.946;6.140;2022-08-21T10:13:48;95121.13;;;22.79;68.08
21838;BME280;11081;45.946;6.140;2022-08-21T10:16:31;95123.69;;;22.98;67.42
21838;BME280;11081;45.946;6.140;2022-08-21T10:19:15;95116.28;;;23.31;66.58
21838;BME280;11081;45.946;6.140;2022-08-21T10:21:59;95113.06;;;23.56;66.19
21838;BME280;11081;45.946;6.140;2022-08-21T10:24:31;95114.78;;;23.38;64.97
21838;BME280;11081;45.946;6.140;2022-08-21T10:27:09;95113.75;;;23.26;64.06
21838;BME280;11081;45.946;6.140;2022-08-21T10:29:49;95111.81;;;23.18;64.74
21838;BME280;11081;45.946;6.140;2022-08-21T10:32:42;95111.41;;;23.10;64.64
21838;BME280;11081;45.946;6.140;2022-08-21T10:35:18;95118.56;;;23.01;64.72
21838;BME280;11081;45.946;6.140;2022-08-21T10:38:14;95107.72;;;22.98;65.32
21838;BME280;11081;45.946;6.140;2022-08-21T10:41:13;95113.38;;;23.19;65.86
21838;BME280;11081;45.946;6.140;2022-08-21T10:43:52;95110.59;;;23.24;64.92
21838;BME280;11081;45.946;6.140;2022-08-21T10:46:31;95102.25;;;23.17;63.83
21838;BME280;11081;45.946;6.140;2022-08-21T10:49:14;95109.25;;;23.13;64.54
21838;BME280;11081;45.946;6.140;2022-08-21T10:51:54;95103.94;;;23.13;65.05
21838;BME280;11081;45.946;6.140;2022-08-21T10:54:32;95100.19;;;23.14;63.71
21838;BME280;11081;45.946;6.140;2022-08-21T10:57:07;95093.66;;;23.20;64.05
21838;BME280;11081;45.946;6.140;2022-08-21T10:59:41;95093.28;;;23.13;62.94
21838;BME280;11081;45.946;6.140;2022-08-21T11:02:15;95088.53;;;23.09;63.75
21838;BME280;11081;45.946;6.140;2022-08-21T11:05:09;95091.63;;;23.25;60.99
21838;BME280;11081;45.946;6.140;2022-08-21T11:07:45;95080.06;;;23.52;61.43
21838;BME280;11081;45.946;6.140;2022-08-21T11:10:20;95086.00;;;23.49;61.21
21838;BME280;11081;45.946;6.140;2022-08-21T11:12:52;95081.13;;;23.42;60.75
21838;BME280;11081;45.946;6.140;2022-08-21T11:15:29;95071.50;;;23.33;60.89
21838;BME280;11081;45.946;6.140;2022-08-21T11:18:14;95079.38;;;23.38;61.02
21838;BME280;11081;45.946;6.140;2022-08-21T11:20:50;95071.00;;;23.53;60.12
21838;BME280;11081;45.946;6.140;2022-08-21T11:23:25;95075.16;;;23.59;60.25
21838;BME280;11081;45.946;6.140;2022-08-21T11:26:02;95081.53;;;23.81;59.19
21838;BME280;11081;45.946;6.140;2022-08-21T11:28:35;95067.72;;;24.10;58.76
21838;BME280;11081;45.946;6.140;2022-08-21T11:31:14;95073.56;;;24.20;57.98
21838;BME280;11081;45.946;6.140;2022-08-21T11:33:54;95078.22;;;24.37;56.82
21838;BME280;11081;45.946;6.140;2022-08-21T11:36:35;95063.16;;;24.41;56.54
21838;BME280;11081;45.946;6.140;2022-08-21T11:39:18;95060.00;;;24.39;55.02
21838;BME280;11081;45.946;6.140;2022-08-21T11:41:54;95069.44;;;24.14;53.95
21838;BME280;11081;45.946;6.140;2022-08-21T11:44:41;95062.50;;;23.96;55.17
21838;BME280;11081;45.946;6.140;2022-08-21T11:47:17;95065.97;;;24.05;54.23
21838;BME280;11081;45.946;6.140;2022-08-21T11:49:59;95063.69;;;23.90;51.83
21838;BME280;11081;45.946;6.140;2022-08-21T11:52:33;95057.19;;;24.05;52.75
21838;BME280;11081;45.946;6.140;2022-08-21T11:55:07;95060.22;;;24.20;50.35
21838;BME280;11081;45.946;6.140;2022-08-21T11:57:51;95057.66;;;24.38;49.08
21838;BME280;11081;45.946;6.140;2022-08-21T12:00:26;95057.97;;;24.45;47.89
21838;BME280;11081;45.946;6.140;2022-08-21T12:02:58;95055.66;;;24.60;48.33
21838;BME280;11081;45.946;6.140;2022-08-21T12:05:35;95056.47;;;24.78;48.83
21838;BME280;11081;45.946;6.140;2022-08-21T12:08:06;95054.56;;;24.70;45.44
21838;BME280;11081;45.946;6.140;2022-08-21T12:10:39;95046.09;;;24.68;45.43
21838;BME280;11081;45.946;6.140;2022-08-21T12:13:10;95053.00;;;24.78;45.12
21838;BME280;11081;45.946;6.140;2022-08-21T12:15:40;95044.84;;;24.91;44.80
21838;BME280;11081;45.946;6.140;2022-08-21T12:18:22;95048.66;;;25.08;42.44
21838;BME280;11081;45.946;6.140;2022-08-21T12:21:00;95041.44;;;25.00;41.95
21838;BME280;11081;45.946;6.140;2022-08-21T12:23:31;95030.59;;;25.05;41.87
21838;BME280;11081;45.946;6.140;2022-08-21T12:26:17;95030.75;;;25.00;41.95
21838;BME280;11081;45.946;6.140;2022-08-21T12:28:47;95042.69;;;25.11;43.22
21838;BME280;11081;45.946;6.140;2022-08-21T12:31:21;95054.31;;;25.15;39.55
21838;BME280;11081;45.946;6.140;2022-08-21T12:33:53;95035.28;;;25.25;41.24
21838;BME280;11081;45.946;6.140;2022-08-21T12:36:24;95036.38;;;25.24;41.96
21838;BME280;11081;45.946;6.140;2022-08-21T12:38:56;95034.19;;;25.26;38.97
21838;BME280;11081;45.946;6.140;2022-08-21T12:41:28;95042.66;;;25.45;38.80
21838;BME280;11081;45.946;6.140;2022-08-21T12:44:02;95043.91;;;25.39;39.35
21838;BME280;11081;45.946;6.140;2022-08-21T12:46:36;95039.50;;;25.43;39.70
21838;BME280;11081;45.946;6.140;2022-08-21T12:49:09;95038.88;;;25.46;39.63
21838;BME280;11081;45.946;6.140;2022-08-21T12:51:50;95041.84;;;25.62;40.05
21838;BME280;11081;45.946;6.140;2022-08-21T12:54:26;95044.19;;;25.64;40.13
21838;BME280;11081;45.946;6.140;2022-08-21T12:56:59;95036.31;;;25.59;40.79
21838;BME280;11081;45.946;6.140;2022-08-21T12:59:28;95040.25;;;25.61;40.77
21838;BME280;11081;45.946;6.140;2022-08-21T13:01:58;95039.44;;;25.61;40.31
21838;BME280;11081;45.946;6.140;2022-08-21T13:04:35;95034.75;;;25.58;39.56
21838;BME280;11081;45.946;6.140;2022-08-21T13:07:07;95028.31;;;25.50;38.55
21838;BME280;11081;45.946;6.140;2022-08-21T13:09:44;95025.16;;;25.57;39.59
21838;BME280;11081;45.946;6.140;2022-08-21T13:12:17;95034.09;;;25.61;39.18
21838;BME280;11081;45.946;6.140;2022-08-21T13:14:48;95031.28;;;25.66;38.65
21838;BME280;11081;45.946;6.140;2022-08-21T13:17:20;95031.72;;;25.85;38.44
21838;BME280;11081;45.946;6.140;2022-08-21T13:20:00;95020.31;;;26.05;38.98
21838;BME280;11081;45.946;6.140;2022-08-21T13:22:28;95025.22;;;26.33;39.32
21838;BME280;11081;45.946;6.140;2022-08-21T13:25:01;95016.47;;;26.53;40.34